Climatologie pour Saint-Brevin les Pins
Jour • Résumé pour juillet 24, 2017 Système :  Métrique    Anglais   Mixte
« - 1 jour
+ 1 jour »
Jour Semaine Mois Année Personnalisé
  Maximum : Minimum : Moyenne :
Température sous abri : 23.0 °C 12.6 °C 18 °C
Point de rosée : 18.6 °C 12.1 °C 15.7 °C
Humidité : 98 % 68 % 87 %
Vitesse du vent : 20.9 km/h 0.0 km/h 6.7 km/h
Rafale : 32.2 km/h - -
Direction :- - WNW
Pression : 1020.2 hPa 1015.1 hPa -
Précipitations : 0.5 mm    
Historical Graphs
 
 
Tableau de données pour juillet 24, 2017
Heure Tempé Pt rosée Pression Vent Vitesse Rafale Humidité Taux pluie (/hr) Soleil
00:00 16.6 °C 16.1 °C 1015.1 hPa Calm     97 % 0.3 mm 0 W/m2
00:05 16.6 °C 16.1 °C 1015.1 hPa Calm   1.6 km/h 97 % 0.3 mm 0 W/m2
00:10 16.6 °C 16.1 °C 1015.5 hPa NNW 1.6 km/h 4.8 km/h 97 % 0.3 mm 0 W/m2
00:15 16.6 °C 16.1 °C 1015.5 hPa Calm   4.8 km/h 97 % 0.3 mm 0 W/m2
00:20 16.6 °C 16.1 °C 1015.5 hPa Calm   6.4 km/h 97 % 0.3 mm 0 W/m2
00:25 16.6 °C 16.1 °C 1015.5 hPa North 3.2 km/h 8.0 km/h 97 % 0.5 mm 0 W/m2
00:30 16.5 °C 16.0 °C 1015.5 hPa NNW 1.6 km/h 8.0 km/h 97 % 0.3 mm 0 W/m2
00:35 16.4 °C 16.1 °C 1015.5 hPa Calm   11.3 km/h 98 % 0.3 mm 0 W/m2
00:40 16.3 °C 16.0 °C 1015.5 hPa Calm   11.3 km/h 98 % 0.3 mm 0 W/m2
00:45 16.3 °C 16.0 °C 1015.5 hPa Calm   3.2 km/h 98 % 0.3 mm 0 W/m2
00:50 16.4 °C 16.1 °C 1015.5 hPa Calm   4.8 km/h 98 % 0.3 mm 0 W/m2
00:55 16.3 °C 16.0 °C 1015.5 hPa Calm   6.4 km/h 98 % 0.3 mm 0 W/m2
01:00 16.3 °C 16.0 °C 1015.8 hPa North 3.2 km/h 6.4 km/h 98 % 0.3 mm 0 W/m2
01:05 16.3 °C 16.0 °C 1015.8 hPa Calm   6.4 km/h 98 % 0.3 mm 0 W/m2
01:10 16.3 °C 16.0 °C 1015.8 hPa Calm   6.4 km/h 98 % 0.3 mm 0 W/m2
01:15 16.3 °C 16.0 °C 1015.8 hPa Calm   6.4 km/h 98 % 0.3 mm 0 W/m2
01:20 16.3 °C 16.0 °C 1015.8 hPa Calm   4.8 km/h 98 % 0.3 mm 0 W/m2
01:25 16.3 °C 16.0 °C 1015.8 hPa Calm   6.4 km/h 98 % 0.0 mm 0 W/m2
01:30 16.3 °C 16.0 °C 1015.8 hPa Calm   6.4 km/h 98 % 0.0 mm 0 W/m2
01:35 16.4 °C 16.1 °C 1015.8 hPa Calm   4.8 km/h 98 % 0.0 mm 0 W/m2
01:40 16.3 °C 16.0 °C 1015.8 hPa Calm   4.8 km/h 98 % 0.0 mm 0 W/m2
01:45 16.4 °C 16.1 °C 1015.8 hPa Calm   3.2 km/h 98 % 0.0 mm 0 W/m2
01:50 16.4 °C 16.1 °C 1015.8 hPa NW 1.6 km/h 6.4 km/h 98 % 0.0 mm 0 W/m2
01:55 16.4 °C 16.1 °C 1015.8 hPa NW 3.2 km/h 8.0 km/h 98 % 0.0 mm 0 W/m2
02:00 16.4 °C 16.1 °C 1015.8 hPa Calm   8.0 km/h 98 % 0.0 mm 0 W/m2
02:05 16.4 °C 16.1 °C 1015.8 hPa NNW 3.2 km/h 8.0 km/h 98 % 0.3 mm 0 W/m2
02:10 16.3 °C 16.0 °C 1015.8 hPa NW 3.2 km/h 11.3 km/h 98 % 0.3 mm 0 W/m2
02:15 16.3 °C 16.0 °C 1015.8 hPa North 8.0 km/h 11.3 km/h 98 % 0.3 mm 0 W/m2
02:20 16.1 °C 15.7 °C 1015.8 hPa North 6.4 km/h 17.7 km/h 98 % 0.3 mm 0 W/m2
02:25 15.7 °C 15.2 °C 1015.8 hPa NW 3.2 km/h 17.7 km/h 97 % 0.3 mm 0 W/m2
02:30 15.6 °C 15.2 °C 1015.8 hPa NNW 9.7 km/h 16.1 km/h 98 % 0.3 mm 0 W/m2
02:35 15.5 °C 15.2 °C 1016.1 hPa NNE 4.8 km/h 16.1 km/h 98 % 0.3 mm 0 W/m2
02:40 15.4 °C 15.1 °C 1016.1 hPa North 6.4 km/h 16.1 km/h 98 % 0.3 mm 0 W/m2
02:45 15.4 °C 15.1 °C 1016.1 hPa NNE 3.2 km/h 11.3 km/h 98 % 0.3 mm 0 W/m2
02:50 15.3 °C 15.0 °C 1016.1 hPa North 8.0 km/h 12.9 km/h 98 % 0.3 mm 0 W/m2
02:55 15.3 °C 15.0 °C 1016.1 hPa NNE 8.0 km/h 12.9 km/h 98 % 0.3 mm 0 W/m2
03:00 15.3 °C 15.0 °C 1016.1 hPa NNE 4.8 km/h 12.9 km/h 98 % 0.3 mm 0 W/m2
03:05 15.2 °C 14.9 °C 1016.1 hPa North 3.2 km/h 12.9 km/h 98 % 0.0 mm 0 W/m2
03:10 15.1 °C 14.7 °C 1016.1 hPa North 1.6 km/h 14.5 km/h 98 % 0.0 mm 0 W/m2
03:15 14.8 °C 14.4 °C 1016.1 hPa NNE 4.8 km/h 14.5 km/h 97 % 0.0 mm 0 W/m2
03:20 14.7 °C 14.4 °C 1016.1 hPa NNW 4.8 km/h 9.7 km/h 98 % 0.0 mm 0 W/m2
03:25 14.7 °C 14.4 °C 1016.1 hPa North 3.2 km/h 9.7 km/h 98 % 0.0 mm 0 W/m2
03:30 14.7 °C 14.4 °C 1016.5 hPa North 3.2 km/h 9.7 km/h 98 % 0.0 mm 0 W/m2
03:35 14.5 °C 14.0 °C 1016.5 hPa NW 8.0 km/h 14.5 km/h 97 % 0.0 mm 0 W/m2
03:40 14.3 °C 14.0 °C 1016.5 hPa NNW 12.9 km/h 16.1 km/h 98 % 0.0 mm 0 W/m2
03:45 14.2 °C 13.7 °C 1016.5 hPa NW 8.0 km/h 19.3 km/h 97 % 0.0 mm 0 W/m2
03:50 14.0 °C 13.7 °C 1016.5 hPa NNE 1.6 km/h 19.3 km/h 98 % 0.0 mm 0 W/m2
03:55 13.9 °C 13.6 °C 1016.5 hPa North 9.7 km/h 12.9 km/h 98 % 0.0 mm 0 W/m2
04:00 13.8 °C 13.4 °C 1016.5 hPa NNW 8.0 km/h 14.5 km/h 97 % 0.0 mm 0 W/m2
04:05 13.7 °C 13.4 °C 1016.5 hPa Calm   16.1 km/h 98 % 0.0 mm 0 W/m2
04:10 13.5 °C 13.2 °C 1016.5 hPa NNW 3.2 km/h 16.1 km/h 98 % 0.0 mm 0 W/m2
04:15 13.3 °C 13.0 °C 1016.5 hPa NW 3.2 km/h 14.5 km/h 98 % 0.0 mm 0 W/m2
04:20 13.3 °C 13.0 °C 1016.5 hPa North 9.7 km/h 16.1 km/h 98 % 0.0 mm 0 W/m2
04:25 13.2 °C 12.8 °C 1016.5 hPa North 1.6 km/h 16.1 km/h 97 % 0.0 mm 0 W/m2
04:30 13.1 °C 12.6 °C 1016.5 hPa NNW 8.0 km/h 16.1 km/h 97 % 0.0 mm 0 W/m2
04:35 13.0 °C 12.7 °C 1016.5 hPa West 6.4 km/h 16.1 km/h 98 % 0.0 mm 0 W/m2
04:40 12.9 °C 12.6 °C 1016.5 hPa NW 8.0 km/h 11.3 km/h 98 % 0.0 mm 0 W/m2
04:45 12.8 °C 12.3 °C 1016.5 hPa NW 6.4 km/h 9.7 km/h 97 % 0.0 mm 0 W/m2
04:50 12.8 °C 12.5 °C 1016.5 hPa NW 1.6 km/h 12.9 km/h 98 % 0.0 mm 0 W/m2
04:55 12.8 °C 12.5 °C 1016.5 hPa North 12.9 km/h 14.5 km/h 98 % 0.0 mm 0 W/m2
05:00 12.8 °C 12.5 °C 1016.8 hPa NW 4.8 km/h 14.5 km/h 98 % 0.0 mm 0 W/m2
05:05 12.8 °C 12.5 °C 1016.8 hPa WNW 6.4 km/h 14.5 km/h 98 % 0.0 mm 0 W/m2
05:10 12.7 °C 12.4 °C 1016.8 hPa WNW 4.8 km/h 12.9 km/h 98 % 0.0 mm 0 W/m2
05:15 12.7 °C 12.4 °C 1016.8 hPa Calm   14.5 km/h 98 % 0.0 mm 0 W/m2
05:20 12.7 °C 12.4 °C 1016.8 hPa WNW 4.8 km/h 14.5 km/h 98 % 0.0 mm 0 W/m2
05:25 12.6 °C 12.3 °C 1016.8 hPa WNW 3.2 km/h 12.9 km/h 98 % 0.0 mm 0 W/m2
05:30 12.6 °C 12.3 °C 1016.8 hPa NW 4.8 km/h 11.3 km/h 98 % 0.0 mm 0 W/m2
05:40 12.6 °C 12.2 °C 1016.5 hPa WNW 6.4 km/h 12.9 km/h 98 % 0.0 mm 0 W/m2
05:45 12.6 °C 12.3 °C 1016.5 hPa NW 3.2 km/h 12.9 km/h 98 % 0.0 mm 0 W/m2
05:50 12.7 °C 12.4 °C 1016.5 hPa NNW 1.6 km/h 14.5 km/h 98 % 0.0 mm 0 W/m2
05:55 12.7 °C 12.4 °C 1016.8 hPa NW 1.6 km/h 14.5 km/h 98 % 0.0 mm 0 W/m2
06:00 12.7 °C 12.4 °C 1016.8 hPa NW 6.4 km/h 14.5 km/h 98 % 0.0 mm 0 W/m2
06:05 12.6 °C 12.3 °C 1016.8 hPa NNW 8.0 km/h 12.9 km/h 98 % 0.0 mm 0 W/m2
06:10 12.6 °C 12.1 °C 1016.8 hPa WNW 1.6 km/h 12.9 km/h 97 % 0.0 mm 0 W/m2
06:15 12.6 °C 12.2 °C 1016.8 hPa WNW 4.8 km/h 12.9 km/h 98 % 0.0 mm 0 W/m2
06:20 12.7 °C 12.4 °C 1016.8 hPa Calm   12.9 km/h 98 % 0.3 mm 0 W/m2
06:25 12.6 °C 12.3 °C 1016.8 hPa WNW 4.8 km/h 11.3 km/h 98 % 0.3 mm 0 W/m2
06:30 12.7 °C 12.4 °C 1016.8 hPa WNW 3.2 km/h 9.7 km/h 98 % 0.3 mm 0 W/m2
06:35 12.6 °C 12.3 °C 1016.8 hPa Calm   14.5 km/h 98 % 0.3 mm 0 W/m2
06:40 12.7 °C 12.4 °C 1016.8 hPa WNW 1.6 km/h 14.5 km/h 98 % 0.3 mm 0 W/m2
06:45 12.8 °C 12.5 °C 1016.8 hPa WNW 6.4 km/h 11.3 km/h 98 % 0.3 mm 7 W/m2
06:50 12.8 °C 12.5 °C 1016.8 hPa WNW 3.2 km/h 11.3 km/h 98 % 0.3 mm 9 W/m2
06:55 12.9 °C 12.6 °C 1016.8 hPa NNW 6.4 km/h 12.9 km/h 98 % 0.3 mm 11 W/m2
07:00 12.8 °C 12.5 °C 1016.8 hPa WNW 3.2 km/h 12.9 km/h 98 % 0.3 mm 14 W/m2
07:05 12.9 °C 12.6 °C 1016.8 hPa WNW 1.6 km/h 12.9 km/h 98 % 0.3 mm 16 W/m2
07:10 13.0 °C 12.7 °C 1016.8 hPa WNW 6.4 km/h 12.9 km/h 98 % 0.3 mm 18 W/m2
07:15 13.1 °C 12.8 °C 1016.8 hPa WNW 1.6 km/h 11.3 km/h 98 % 0.3 mm 21 W/m2
07:20 13.2 °C 12.9 °C 1016.8 hPa NNW 8.0 km/h 14.5 km/h 98 % 0.0 mm 23 W/m2
07:25 13.3 °C 13.0 °C 1016.8 hPa NW 9.7 km/h 14.5 km/h 98 % 0.0 mm 25 W/m2
07:30 13.4 °C 13.1 °C 1016.8 hPa West 4.8 km/h 14.5 km/h 98 % 0.0 mm 26 W/m2
07:35 13.5 °C 13.2 °C 1016.8 hPa NNW 3.2 km/h 16.1 km/h 98 % 0.0 mm 30 W/m2
07:40 13.6 °C 13.3 °C 1016.8 hPa NW 8.0 km/h 16.1 km/h 98 % 0.0 mm 32 W/m2
07:45 13.7 °C 13.4 °C 1017.2 hPa West 4.8 km/h 16.1 km/h 98 % 0.0 mm 33 W/m2
07:50 13.8 °C 13.5 °C 1017.2 hPa WNW 6.4 km/h 14.5 km/h 98 % 0.0 mm 35 W/m2
07:55 13.9 °C 13.6 °C 1017.2 hPa Calm   14.5 km/h 98 % 0.0 mm 37 W/m2
08:00 13.9 °C 13.6 °C 1017.2 hPa WNW 6.4 km/h 14.5 km/h 98 % 0.0 mm 39 W/m2
08:05 14.1 °C 13.7 °C 1017.2 hPa WNW 4.8 km/h 14.5 km/h 98 % 0.0 mm 42 W/m2
08:10 14.2 °C 13.7 °C 1017.2 hPa WNW 3.2 km/h 14.5 km/h 97 % 0.0 mm 44 W/m2
08:15 14.2 °C 13.8 °C 1017.2 hPa NNW 6.4 km/h 19.3 km/h 97 % 0.0 mm 46 W/m2
08:20 14.3 °C 13.8 °C 1017.5 hPa WNW 3.2 km/h 19.3 km/h 97 % 0.0 mm 248 W/m2
08:25 14.4 °C 14.0 °C 1017.5 hPa West 3.2 km/h 11.3 km/h 97 % 0.0 mm 262 W/m2
08:30 14.5 °C 14.0 °C 1017.5 hPa NNE 8.0 km/h 16.1 km/h 97 % 0.0 mm 276 W/m2
08:35 14.7 °C 14.2 °C 1017.5 hPa WNW 11.3 km/h 16.1 km/h 97 % 0.0 mm 292 W/m2
08:40 14.8 °C 14.3 °C 1017.5 hPa WNW 8.0 km/h 19.3 km/h 97 % 0.0 mm 311 W/m2
08:45 14.9 °C 14.4 °C 1017.5 hPa WNW 4.8 km/h 19.3 km/h 97 % 0.0 mm 346 W/m2
08:50 15.2 °C 14.5 °C 1017.5 hPa NW 1.6 km/h 16.1 km/h 96 % 0.0 mm 181 W/m2
08:55 15.2 °C 14.6 °C 1017.5 hPa WNW 8.0 km/h 16.1 km/h 96 % 0.0 mm 165 W/m2
09:00 15.3 °C 14.7 °C 1017.8 hPa WNW 6.4 km/h 16.1 km/h 96 % 0.0 mm 462 W/m2
09:05 15.6 °C 14.8 °C 1017.8 hPa West 8.0 km/h 16.1 km/h 95 % 0.0 mm 378 W/m2
09:10 15.9 °C 15.1 °C 1017.8 hPa NNW 4.8 km/h 16.1 km/h 95 % 0.0 mm 429 W/m2
09:15 15.8 °C 14.9 °C 1017.8 hPa WNW 4.8 km/h 16.1 km/h 94 % 0.0 mm 374 W/m2
09:20 15.8 °C 14.7 °C 1017.8 hPa NW 9.7 km/h 16.1 km/h 93 % 0.0 mm 417 W/m2
09:25 15.9 °C 14.8 °C 1017.8 hPa West 9.7 km/h 17.7 km/h 93 % 0.0 mm 417 W/m2
09:30 16.1 °C 14.8 °C 1017.8 hPa West 8.0 km/h 17.7 km/h 92 % 0.0 mm 424 W/m2
09:35 16.3 °C 14.8 °C 1017.8 hPa NW 4.8 km/h 14.5 km/h 91 % 0.0 mm 436 W/m2
09:40 16.6 °C 14.9 °C 1018.2 hPa NNW 3.2 km/h 19.3 km/h 90 % 0.0 mm 452 W/m2
09:45 16.8 °C 15.0 °C 1017.8 hPa Calm   19.3 km/h 89 % 0.0 mm 461 W/m2
09:55 17.2 °C 15.2 °C 1018.2 hPa NNW 9.7 km/h 14.5 km/h 88 % 0.0 mm 485 W/m2
10:00 17.3 °C 15.3 °C 1018.2 hPa NW 9.7 km/h 12.9 km/h 88 % 0.0 mm 499 W/m2
10:05 17.7 °C 15.5 °C 1018.2 hPa WNW 6.4 km/h 14.5 km/h 87 % 0.0 mm 512 W/m2
10:10 17.8 °C 15.3 °C 1018.2 hPa WNW 4.8 km/h 16.1 km/h 85 % 0.0 mm 529 W/m2
10:15 18.2 °C 15.8 °C 1018.2 hPa NNW 4.8 km/h 17.7 km/h 86 % 0.0 mm 543 W/m2
10:20 18.2 °C 15.5 °C 1018.2 hPa WNW 4.8 km/h 17.7 km/h 84 % 0.0 mm 554 W/m2
10:25 18.3 °C 15.6 °C 1018.2 hPa NNW 16.1 km/h 20.9 km/h 84 % 0.0 mm 570 W/m2
10:30 18.5 °C 15.6 °C 1018.5 hPa NW 4.8 km/h 20.9 km/h 83 % 0.0 mm 587 W/m2
10:35 19.1 °C 16.3 °C 1018.5 hPa NW 6.4 km/h 16.1 km/h 84 % 0.0 mm 601 W/m2
10:40 19.2 °C 15.7 °C 1018.5 hPa NNW 6.4 km/h 17.7 km/h 80 % 0.0 mm 622 W/m2
10:45 19.4 °C 16.6 °C 1018.5 hPa West 8.0 km/h 17.7 km/h 84 % 0.0 mm 684 W/m2
10:50 19.6 °C 15.8 °C 1018.5 hPa North 4.8 km/h 20.9 km/h 79 % 0.0 mm 643 W/m2
10:55 19.6 °C 15.9 °C 1018.5 hPa NNW 17.7 km/h 20.9 km/h 79 % 0.0 mm 654 W/m2
11:00 19.7 °C 16.2 °C 1018.5 hPa NW 6.4 km/h 17.7 km/h 80 % 0.0 mm 654 W/m2
11:05 19.8 °C 15.8 °C 1018.5 hPa Calm   19.3 km/h 78 % 0.0 mm 673 W/m2
11:10 19.8 °C 16.2 °C 1018.5 hPa NW 6.4 km/h 19.3 km/h 80 % 0.0 mm 689 W/m2
11:20 19.9 °C 15.9 °C 1018.5 hPa NNW 8.0 km/h 17.7 km/h 78 % 0.0 mm 700 W/m2
11:25 20.2 °C 15.6 °C 1018.5 hPa WNW 9.7 km/h 16.1 km/h 75 % 0.0 mm 714 W/m2
11:30 20.3 °C 15.7 °C 1018.5 hPa NNW 6.4 km/h 17.7 km/h 75 % 0.0 mm 717 W/m2
11:35 20.3 °C 16.2 °C 1018.5 hPa WNW 6.4 km/h 17.7 km/h 77 % 0.0 mm 728 W/m2
11:40 20.3 °C 15.5 °C 1018.5 hPa WNW 4.8 km/h 16.1 km/h 74 % 0.0 mm 731 W/m2
11:45 20.7 °C 15.9 °C 1018.5 hPa WNW 11.3 km/h 16.1 km/h 74 % 0.0 mm 744 W/m2
11:50 20.6 °C 15.6 °C 1018.5 hPa WNW 16.1 km/h 16.1 km/h 73 % 0.0 mm 761 W/m2
11:55 20.9 °C 16.9 °C 1018.5 hPa West 8.0 km/h 20.9 km/h 78 % 0.0 mm 765 W/m2
12:00 21.3 °C 16.7 °C 1018.5 hPa WNW 4.8 km/h 20.9 km/h 75 % 0.0 mm 765 W/m2
12:05 21.5 °C 17.1 °C 1018.5 hPa Calm   14.5 km/h 76 % 0.0 mm 775 W/m2
12:10 21.7 °C 16.4 °C 1018.5 hPa Calm   16.1 km/h 72 % 0.0 mm 798 W/m2
12:15 21.4 °C 16.3 °C 1018.5 hPa WNW 1.6 km/h 16.1 km/h 73 % 0.0 mm 807 W/m2
12:20 21.3 °C 16.0 °C 1018.5 hPa NNW 6.4 km/h 14.5 km/h 72 % 0.0 mm 830 W/m2
12:25 21.7 °C 16.2 °C 1018.8 hPa WNW 3.2 km/h 14.5 km/h 71 % 0.0 mm 858 W/m2
12:30 21.7 °C 16.5 °C 1018.8 hPa WNW 6.4 km/h 16.1 km/h 72 % 0.0 mm 875 W/m2
12:35 21.9 °C 15.9 °C 1018.8 hPa Calm   19.3 km/h 69 % 0.0 mm 413 W/m2
12:40 21.6 °C 16.3 °C 1018.8 hPa NNW 11.3 km/h 19.3 km/h 72 % 0.0 mm 257 W/m2
12:45 20.9 °C 16.1 °C 1018.8 hPa West 1.6 km/h 14.5 km/h 74 % 0.0 mm 269 W/m2
12:50 20.3 °C 15.5 °C 1018.8 hPa NNW 8.0 km/h 17.7 km/h 74 % 0.0 mm 244 W/m2
12:55 20.2 °C 15.6 °C 1018.8 hPa WNW 8.0 km/h 17.7 km/h 75 % 0.0 mm 260 W/m2
13:00 20.1 °C 15.7 °C 1018.8 hPa WNW 8.0 km/h 17.7 km/h 76 % 0.0 mm 221 W/m2
13:05 19.9 °C 15.6 °C 1018.8 hPa NW 3.2 km/h 16.1 km/h 76 % 0.0 mm 258 W/m2
13:10 20.4 °C 15.9 °C 1018.5 hPa WNW 6.4 km/h 16.1 km/h 75 % 0.0 mm 666 W/m2
13:15 21.5 °C 16.2 °C 1018.5 hPa WNW 9.7 km/h 16.1 km/h 72 % 0.0 mm 793 W/m2
13:20 21.6 °C 16.1 °C 1018.5 hPa North 6.4 km/h 22.5 km/h 71 % 0.0 mm 490 W/m2
13:25 21.8 °C 16.1 °C 1018.5 hPa West 4.8 km/h 22.5 km/h 70 % 0.0 mm 555 W/m2
13:30 21.8 °C 16.3 °C 1018.5 hPa WNW 11.3 km/h 19.3 km/h 71 % 0.0 mm 619 W/m2
13:35 21.5 °C 16.2 °C 1018.5 hPa West 12.9 km/h 19.3 km/h 72 % 0.0 mm 1041 W/m2
13:40 21.4 °C 16.8 °C 1018.5 hPa West 12.9 km/h 17.7 km/h 75 % 0.0 mm 1020 W/m2
13:45 22.5 °C 16.8 °C 1018.5 hPa NW 6.4 km/h 17.7 km/h 70 % 0.0 mm 893 W/m2
13:50 22.9 °C 16.7 °C 1018.5 hPa West 4.8 km/h 17.7 km/h 68 % 0.0 mm 383 W/m2
13:55 21.2 °C 16.6 °C 1018.8 hPa West 17.7 km/h 22.5 km/h 75 % 0.0 mm 295 W/m2
14:00 20.1 °C 16.3 °C 1018.8 hPa West 17.7 km/h 22.5 km/h 79 % 0.0 mm 309 W/m2
14:05 19.8 °C 16.5 °C 1018.8 hPa WNW 11.3 km/h 24.1 km/h 81 % 0.0 mm 195 W/m2
14:10 19.8 °C 16.4 °C 1018.8 hPa WNW 11.3 km/h 24.1 km/h 81 % 0.0 mm 322 W/m2
14:15 20.3 °C 17.0 °C 1018.8 hPa WNW 8.0 km/h 22.5 km/h 81 % 0.0 mm 464 W/m2
14:20 20.9 °C 17.0 °C 1018.8 hPa West 6.4 km/h 22.5 km/h 78 % 0.0 mm 366 W/m2
14:25 20.4 °C 16.6 °C 1018.8 hPa West 4.8 km/h 25.7 km/h 79 % 0.0 mm 243 W/m2
14:30 19.9 °C 16.5 °C 1018.8 hPa WNW 14.5 km/h 25.7 km/h 81 % 0.0 mm 200 W/m2
14:35 19.6 °C 16.4 °C 1018.8 hPa WNW 8.0 km/h 25.7 km/h 82 % 0.0 mm 239 W/m2
14:40 20.3 °C 17.5 °C 1018.8 hPa West 11.3 km/h 25.7 km/h 84 % 0.0 mm 330 W/m2
14:45 20.6 °C 17.0 °C 1018.8 hPa West 8.0 km/h 27.4 km/h 80 % 0.0 mm 315 W/m2
14:50 20.2 °C 16.9 °C 1018.8 hPa WSW 9.7 km/h 27.4 km/h 81 % 0.0 mm 403 W/m2
14:55 20.8 °C 17.5 °C 1018.8 hPa WNW 17.7 km/h 24.1 km/h 81 % 0.0 mm 904 W/m2
15:00 21.9 °C 17.5 °C 1018.8 hPa NW 17.7 km/h 22.5 km/h 76 % 0.0 mm 937 W/m2
15:05 22.0 °C 17.6 °C 1018.8 hPa NW 8.0 km/h 22.5 km/h 76 % 0.0 mm 824 W/m2
15:10 21.7 °C 17.1 °C 1018.8 hPa West 14.5 km/h 20.9 km/h 75 % 0.0 mm 253 W/m2
15:15 21.6 °C 17.4 °C 1018.8 hPa WSW 11.3 km/h 20.9 km/h 77 % 0.0 mm 874 W/m2
15:20 21.9 °C 17.5 °C 1018.8 hPa WSW 9.7 km/h 27.4 km/h 76 % 0.0 mm 932 W/m2
15:25 22.6 °C 18.1 °C 1018.8 hPa NW 6.4 km/h 27.4 km/h 76 % 0.0 mm 911 W/m2
15:30 21.9 °C 18.1 °C 1018.5 hPa WNW 8.0 km/h 30.6 km/h 79 % 0.0 mm 911 W/m2
15:35 21.0 °C 17.2 °C 1018.8 hPa West 19.3 km/h 30.6 km/h 79 % 0.0 mm 281 W/m2
15:40 20.9 °C 18.1 °C 1018.8 hPa WNW 12.9 km/h 25.7 km/h 84 % 0.0 mm 821 W/m2
15:45 21.7 °C 17.7 °C 1018.5 hPa West 20.9 km/h 30.6 km/h 78 % 0.0 mm 814 W/m2
15:50 21.3 °C 17.5 °C 1018.5 hPa WNW 8.0 km/h 30.6 km/h 79 % 0.0 mm 870 W/m2
15:55 21.7 °C 17.9 °C 1018.5 hPa West 6.4 km/h 27.4 km/h 79 % 0.0 mm 900 W/m2
16:00 21.6 °C 18.0 °C 1018.5 hPa West 8.0 km/h 25.7 km/h 80 % 0.0 mm 795 W/m2
16:05 21.7 °C 18.3 °C 1018.5 hPa WSW 14.5 km/h 25.7 km/h 81 % 0.0 mm 795 W/m2
16:10 21.8 °C 18.2 °C 1018.5 hPa West 14.5 km/h 24.1 km/h 80 % 0.0 mm 865 W/m2
16:15 21.8 °C 18.2 °C 1018.5 hPa WSW 6.4 km/h 27.4 km/h 80 % 0.0 mm 977 W/m2
16:20 22.2 °C 18.0 °C 1018.5 hPa West 17.7 km/h 27.4 km/h 77 % 0.0 mm 483 W/m2
16:25 23.0 °C 18.3 °C 1018.5 hPa West 20.9 km/h 27.4 km/h 75 % 0.0 mm 963 W/m2
16:30 22.7 °C 17.8 °C 1018.5 hPa WNW 11.3 km/h 27.4 km/h 74 % 0.0 mm 865 W/m2
16:35 22.9 °C 18.1 °C 1018.5 hPa West 8.0 km/h 27.4 km/h 74 % 0.0 mm 364 W/m2
16:40 22.3 °C 17.8 °C 1018.5 hPa WNW 9.7 km/h 30.6 km/h 76 % 0.0 mm 800 W/m2
16:45 22.1 °C 17.8 °C 1018.5 hPa WNW 6.4 km/h 32.2 km/h 77 % 0.0 mm 717 W/m2
16:50 22.4 °C 18.2 °C 1018.5 hPa WNW 19.3 km/h 32.2 km/h 77 % 0.0 mm 705 W/m2
16:55 22.2 °C 17.9 °C 1018.5 hPa West 17.7 km/h 29.0 km/h 77 % 0.0 mm 710 W/m2
17:00 22.8 °C 18.6 °C 1018.5 hPa South 12.9 km/h 24.1 km/h 77 % 0.0 mm 791 W/m2
17:05 22.1 °C 17.6 °C 1018.2 hPa West 14.5 km/h 25.7 km/h 76 % 0.0 mm 315 W/m2
17:10 21.8 °C 17.8 °C 1018.5 hPa West 16.1 km/h 25.7 km/h 78 % 0.0 mm 654 W/m2
17:15 22.3 °C 18.0 °C 1018.5 hPa NW 16.1 km/h 27.4 km/h 77 % 0.0 mm 805 W/m2
17:20 21.9 °C 17.7 °C 1018.5 hPa West 12.9 km/h 27.4 km/h 77 % 0.0 mm 227 W/m2
17:25 21.6 °C 17.8 °C 1018.5 hPa West 6.4 km/h 24.1 km/h 79 % 0.0 mm 309 W/m2
17:30 21.8 °C 18.0 °C 1018.5 hPa SW 4.8 km/h 22.5 km/h 79 % 0.0 mm 517 W/m2
17:35 21.8 °C 18.0 °C 1018.5 hPa WNW 6.4 km/h 24.1 km/h 79 % 0.0 mm 279 W/m2
17:40 21.9 °C 17.7 °C 1018.5 hPa West 6.4 km/h 24.1 km/h 77 % 0.0 mm 684 W/m2
17:45 22.0 °C 17.8 °C 1018.5 hPa WSW 16.1 km/h 25.7 km/h 77 % 0.0 mm 227 W/m2
17:50 21.9 °C 17.7 °C 1018.5 hPa West 16.1 km/h 25.7 km/h 77 % 0.0 mm 274 W/m2
17:55 21.9 °C 17.9 °C 1018.5 hPa West 3.2 km/h 22.5 km/h 78 % 0.0 mm 782 W/m2
18:00 22.6 °C 18.0 °C 1018.5 hPa WNW 8.0 km/h 24.1 km/h 75 % 0.0 mm 338 W/m2
18:05 22.4 °C 17.5 °C 1018.5 hPa WSW 1.6 km/h 24.1 km/h 74 % 0.0 mm 413 W/m2
18:10 21.8 °C 17.4 °C 1018.5 hPa WNW 17.7 km/h 22.5 km/h 76 % 0.0 mm 255 W/m2
18:15 21.4 °C 17.4 °C 1018.5 hPa NW 11.3 km/h 22.5 km/h 78 % 0.0 mm 232 W/m2
18:20 21.7 °C 17.7 °C 1018.2 hPa WNW 16.1 km/h 22.5 km/h 78 % 0.0 mm 582 W/m2
18:25 21.8 °C 17.4 °C 1018.2 hPa WNW 4.8 km/h 24.1 km/h 76 % 0.0 mm 566 W/m2
18:30 22.4 °C 17.7 °C 1018.2 hPa NW 16.1 km/h 24.1 km/h 75 % 0.0 mm 492 W/m2
18:35 21.4 °C 17.2 °C 1018.2 hPa NW 14.5 km/h 25.7 km/h 77 % 0.0 mm 125 W/m2
18:40 21.0 °C 17.2 °C 1018.2 hPa WNW 6.4 km/h 25.7 km/h 79 % 0.0 mm 169 W/m2
18:45 20.9 °C 17.5 °C 1018.2 hPa WSW 16.1 km/h 24.1 km/h 81 % 0.0 mm 193 W/m2
18:50 20.8 °C 17.3 °C 1018.5 hPa West 8.0 km/h 22.5 km/h 80 % 0.0 mm 120 W/m2
18:55 20.7 °C 17.3 °C 1018.5 hPa WSW 6.4 km/h 19.3 km/h 81 % 0.0 mm 151 W/m2
19:00 20.7 °C 17.3 °C 1018.5 hPa WSW 3.2 km/h 17.7 km/h 81 % 0.0 mm 130 W/m2
19:05 20.6 °C 17.4 °C 1018.5 hPa West 16.1 km/h 20.9 km/h 82 % 0.0 mm 125 W/m2
19:10 20.7 °C 17.5 °C 1018.5 hPa NW 8.0 km/h 29.0 km/h 82 % 0.0 mm 153 W/m2
19:15 20.7 °C 17.5 °C 1018.2 hPa West 12.9 km/h 29.0 km/h 82 % 0.0 mm 162 W/m2
19:20 20.8 °C 17.6 °C 1018.5 hPa WSW 12.9 km/h 20.9 km/h 82 % 0.0 mm 162 W/m2
19:25 21.1 °C 17.7 °C 1018.5 hPa West 4.8 km/h 19.3 km/h 81 % 0.0 mm 271 W/m2
19:30 21.3 °C 17.9 °C 1018.5 hPa NW 9.7 km/h 19.3 km/h 81 % 0.0 mm 199 W/m2
19:35 21.5 °C 17.7 °C 1018.5 hPa WNW 9.7 km/h 19.3 km/h 79 % 0.0 mm 165 W/m2
19:40 21.5 °C 17.7 °C 1018.2 hPa WNW 8.0 km/h 19.3 km/h 79 % 0.0 mm 301 W/m2
19:45 21.8 °C 17.8 °C 1018.2 hPa WNW 8.0 km/h 16.1 km/h 78 % 0.0 mm 250 W/m2
19:50 21.7 °C 17.7 °C 1018.2 hPa WSW 4.8 km/h 22.5 km/h 78 % 0.0 mm 216 W/m2
19:55 21.6 °C 17.6 °C 1018.5 hPa West 4.8 km/h 22.5 km/h 78 % 0.0 mm 202 W/m2
20:00 21.6 °C 17.6 °C 1018.5 hPa WNW 1.6 km/h 17.7 km/h 78 % 0.0 mm 183 W/m2
20:05 21.6 °C 17.6 °C 1018.5 hPa WNW 3.2 km/h 16.1 km/h 78 % 0.0 mm 160 W/m2
20:10 21.5 °C 17.5 °C 1018.5 hPa WNW 3.2 km/h 16.1 km/h 78 % 0.0 mm 146 W/m2
20:15 21.4 °C 17.4 °C 1018.5 hPa WNW 3.2 km/h 19.3 km/h 78 % 0.0 mm 134 W/m2
20:20 21.3 °C 17.7 °C 1018.5 hPa NW 11.3 km/h 19.3 km/h 80 % 0.0 mm 111 W/m2
20:25 21.1 °C 17.3 °C 1018.5 hPa WNW 9.7 km/h 19.3 km/h 79 % 0.0 mm 76 W/m2
20:30 20.9 °C 17.3 °C 1018.8 hPa West 12.9 km/h 19.3 km/h 80 % 0.0 mm 100 W/m2
20:35 20.8 °C 17.3 °C 1018.8 hPa WNW 9.7 km/h 17.7 km/h 80 % 0.0 mm 49 W/m2
20:40 20.7 °C 17.3 °C 1018.8 hPa WNW 11.3 km/h 17.7 km/h 81 % 0.0 mm 42 W/m2
20:45 20.6 °C 17.2 °C 1018.8 hPa NNW 6.4 km/h 16.1 km/h 81 % 0.0 mm 37 W/m2
20:50 20.4 °C 17.0 °C 1018.8 hPa NW 6.4 km/h 16.1 km/h 81 % 0.0 mm 33 W/m2
20:55 20.3 °C 17.1 °C 1018.8 hPa WNW 8.0 km/h 19.3 km/h 82 % 0.0 mm 30 W/m2
21:00 20.2 °C 17.0 °C 1018.8 hPa WNW 6.4 km/h 19.3 km/h 82 % 0.0 mm 25 W/m2
21:05 20.0 °C 16.8 °C 1018.8 hPa WNW 4.8 km/h 16.1 km/h 82 % 0.0 mm 21 W/m2
21:10 19.9 °C 16.9 °C 1018.8 hPa WNW 6.4 km/h 16.1 km/h 83 % 0.0 mm 18 W/m2
21:15 19.7 °C 16.9 °C 1018.8 hPa WNW 1.6 km/h 12.9 km/h 84 % 0.0 mm 14 W/m2
21:20 19.5 °C 16.9 °C 1018.8 hPa NW 1.6 km/h 11.3 km/h 85 % 0.0 mm 14 W/m2
21:25 19.4 °C 16.8 °C 1018.8 hPa WNW 4.8 km/h 11.3 km/h 85 % 0.0 mm 12 W/m2
21:30 19.3 °C 16.7 °C 1019.2 hPa WNW 6.4 km/h 9.7 km/h 85 % 0.0 mm 9 W/m2
21:35 19.1 °C 16.7 °C 1019.2 hPa WNW 9.7 km/h 11.3 km/h 86 % 0.0 mm 7 W/m2
21:40 19.0 °C 16.6 °C 1019.2 hPa WNW 3.2 km/h 14.5 km/h 86 % 0.0 mm 5 W/m2
21:45 18.9 °C 16.5 °C 1019.2 hPa West 1.6 km/h 14.5 km/h 86 % 0.0 mm 0 W/m2
21:50 18.7 °C 16.5 °C 1019.2 hPa WNW 6.4 km/h 9.7 km/h 87 % 0.0 mm 0 W/m2
21:55 18.6 °C 16.5 °C 1019.2 hPa Calm   9.7 km/h 88 % 0.0 mm 0 W/m2
22:00 18.4 °C 16.6 °C 1019.2 hPa NW 6.4 km/h 11.3 km/h 89 % 0.0 mm 0 W/m2
22:05 18.4 °C 16.6 °C 1019.2 hPa WNW 3.2 km/h 12.9 km/h 89 % 0.0 mm 0 W/m2
22:10 18.5 °C 16.7 °C 1019.2 hPa NW 9.7 km/h 19.3 km/h 89 % 0.0 mm 0 W/m2
22:15 18.5 °C 16.7 °C 1019.2 hPa West 4.8 km/h 19.3 km/h 89 % 0.0 mm 0 W/m2
22:25 18.3 °C 16.5 °C 1019.5 hPa NW 11.3 km/h 16.1 km/h 89 % 0.0 mm 0 W/m2
22:30 18.3 °C 16.4 °C 1019.5 hPa North 14.5 km/h 16.1 km/h 89 % 0.0 mm 0 W/m2
22:35 18.2 °C 16.6 °C 1019.5 hPa WNW 6.4 km/h 16.1 km/h 90 % 0.0 mm 0 W/m2
22:40 18.1 °C 16.4 °C 1019.5 hPa NNW 3.2 km/h 16.1 km/h 90 % 0.0 mm 0 W/m2
22:45 18.0 °C 16.3 °C 1019.5 hPa WNW 3.2 km/h 16.1 km/h 90 % 0.0 mm 0 W/m2
22:50 17.9 °C 16.3 °C 1019.5 hPa NNW 6.4 km/h 16.1 km/h 90 % 0.0 mm 0 W/m2
22:55 17.9 °C 16.4 °C 1019.9 hPa NW 11.3 km/h 16.1 km/h 91 % 0.0 mm 0 W/m2
23:00 17.8 °C 16.3 °C 1019.9 hPa NNW 1.6 km/h 14.5 km/h 91 % 0.0 mm 0 W/m2
23:05 17.7 °C 16.2 °C 1019.9 hPa WNW 4.8 km/h 14.5 km/h 91 % 0.0 mm 0 W/m2
23:10 17.5 °C 16.0 °C 1019.9 hPa Calm   11.3 km/h 91 % 0.0 mm 0 W/m2
23:15 17.4 °C 16.1 °C 1019.9 hPa NW 1.6 km/h 11.3 km/h 92 % 0.0 mm 0 W/m2
23:20 17.4 °C 16.1 °C 1019.9 hPa WNW 4.8 km/h 11.3 km/h 92 % 0.0 mm 0 W/m2
23:25 17.4 °C 16.1 °C 1019.9 hPa WNW 1.6 km/h 12.9 km/h 92 % 0.0 mm 0 W/m2
23:30 17.3 °C 16.0 °C 1019.9 hPa WNW 9.7 km/h 12.9 km/h 92 % 0.0 mm 0 W/m2
23:35 17.3 °C 16.0 °C 1020.2 hPa NNW 3.2 km/h 11.3 km/h 92 % 0.0 mm 0 W/m2
23:40 17.2 °C 15.9 °C 1020.2 hPa North 6.4 km/h 11.3 km/h 92 % 0.0 mm 0 W/m2
23:45 17.1 °C 16.0 °C 1020.2 hPa NW 4.8 km/h 9.7 km/h 93 % 0.0 mm 0 W/m2
23:50 16.9 °C 15.8 °C 1020.2 hPa NW 8.0 km/h 11.3 km/h 93 % 0.0 mm 0 W/m2
23:55 16.9 °C 15.7 °C 1019.9 hPa NW 8.0 km/h 11.3 km/h 93 % 0.0 mm 0 W/m2
Avec l'autorisation de Weather Underground - 1.75 mb